Historique des mesures à Cassis (13260), France
Quotidien Résumé Juin 30, 2021 Unités:  Métrique    US   Métrique/US
Quotidien Hebdomadaire Mensuel Annuel
  Maximum: Minimum: Moyenne:
Température: 9.2 °C 2.7 °C 6 °C
Point de rosée: -0.2 °C -4.2 °C -2.7 °C
Humidité: 64% 39% 54%
Vitesse du vent: 32.4km/h 2.9km/h 18.3km/h
Rafales: 50.8km/h - -
Vent- - WNW
Pression: 1019.4 hPa 1013.3 hPa -
Précipitations: 0.0 mm    
Historical Graphs
 
 
Mesures pour : Juin 30, 2021
Heure Temperature Point de rosée Pression Vent Vitesse du vent Rafales Humidité Pluie (par heure)
00:11 4.4 °C -3.9 °C 1013.3 hPa WNW 19.4 km/h 46.8 km/h 55% 0.0 mm
01:10 4.2 °C -3.6 °C 1014.0 hPa NNW 29.2 km/h 46.4 km/h 57% 0.0 mm
02:11 3.9 °C -3.7 °C 1014.5 hPa West 15.5 km/h 35.3 km/h 58% 0.0 mm
03:10 3.6 °C -3.7 °C 1015.4 hPa West 14 km/h 21.6 km/h 59% 0.0 mm
04:11 3.5 °C -3.6 °C 1016.0 hPa WNW 12.6 km/h 27.4 km/h 60% 0.0 mm
05:10 3.3 °C -3.5 °C 1016.5 hPa WNW 19.8 km/h 37.1 km/h 61% 0.0 mm
06:11 3 °C -3.2 °C 1016.8 hPa WNW 12.2 km/h 29.5 km/h 64% 0.0 mm
07:10 2.8 °C -3.4 °C 1017.1 hPa NW 4.7 km/h 32.8 km/h 64% 0.0 mm
08:11 2.7 °C -3.5 °C 1017.7 hPa WNW 15.5 km/h 26.6 km/h 64% 0.0 mm
09:10 3.6 °C -3.3 °C 1018.6 hPa NNW 2.9 km/h 15.1 km/h 61% 0.0 mm
10:11 4.5 °C -2.9 °C 1019.3 hPa NNW 10.4 km/h 15.5 km/h 59% 0.0 mm
11:10 5.8 °C -2.4 °C 1019.4 hPa West 13.3 km/h 25.6 km/h 56% 0.0 mm
12:11 6.8 °C -1.9 °C 1019.3 hPa West 19.8 km/h 21.2 km/h 54% 0.0 mm
13:10 7.6 °C -1.4 °C 1018.3 hPa West 6.1 km/h 24.5 km/h 53% 0.0 mm
14:11 8.5 °C -2 °C 1017.6 hPa NW 32.4 km/h 33.8 km/h 48% 0.0 mm
15:10 9.1 °C -1.7 °C 1017.5 hPa West 20.9 km/h 23.4 km/h 47% 0.0 mm
17:10 8.9 °C -3.4 °C 1016.8 hPa WNW 29.5 km/h 36.7 km/h 42% 0.0 mm
18:11 9.1 °C -4.2 °C 1016.4 hPa West 29.5 km/h 50.8 km/h 39% 0.0 mm
19:10 8.4 °C -3.2 °C 1016.8 hPa NW 27.7 km/h 42.8 km/h 44% 0.0 mm
20:11 8.3 °C -1.5 °C 1017.1 hPa West 30.6 km/h 45 km/h 50% 0.0 mm
21:10 8.3 °C -1.3 °C 1016.8 hPa NNW 20.9 km/h 41.8 km/h 51% 0.0 mm
22:11 9.2 °C -0.2 °C 1016.4 hPa NW 15.5 km/h 49.7 km/h 52% 0.0 mm
23:10 8.7 °C -0.2 °C 1016.8 hPa West 18 km/h 32.8 km/h 54% 0.0 mm
Observations météo à CASSIS
WU-History script by Weather Underground - 2 mb